sensor_id;sensor_type;location;lat;lon;timestamp;P1;durP1;ratioP1;P2;durP2;ratioP2
4700;SDS011;8724;51.272;6.554;2023-12-04T00:00:02;12.37;;;11.10;;
4700;SDS011;8724;51.272;6.554;2023-12-04T00:02:37;13.50;;;12.10;;
4700;SDS011;8724;51.272;6.554;2023-12-04T00:05:06;12.63;;;11.43;;
4700;SDS011;8724;51.272;6.554;2023-12-04T00:07:35;11.07;;;10.07;;
4700;SDS011;8724;51.272;6.554;2023-12-04T00:10:05;12.20;;;11.00;;
4700;SDS011;8724;51.272;6.554;2023-12-04T00:12:34;11.40;;;10.30;;
4700;SDS011;8724;51.272;6.554;2023-12-04T00:15:03;11.77;;;10.67;;
4700;SDS011;8724;51.272;6.554;2023-12-04T00:17:33;12.73;;;11.53;;
4700;SDS011;8724;51.272;6.554;2023-12-04T00:20:06;12.20;;;10.40;;
4700;SDS011;8724;51.272;6.554;2023-12-04T00:22:35;17.53;;;9.97;;
4700;SDS011;8724;51.272;6.554;2023-12-04T00:25:07;10.87;;;9.83;;
4700;SDS011;8724;51.272;6.554;2023-12-04T00:27:36;11.17;;;10.17;;
4700;SDS011;8724;51.272;6.554;2023-12-04T00:30:04;11.07;;;9.97;;
4700;SDS011;8724;51.272;6.554;2023-12-04T00:32:33;11.43;;;10.23;;
4700;SDS011;8724;51.272;6.554;2023-12-04T00:35:01;10.50;;;9.50;;
4700;SDS011;8724;51.272;6.554;2023-12-04T00:37:29;11.23;;;10.10;;
4700;SDS011;8724;51.272;6.554;2023-12-04T00:39:57;9.47;;;8.50;;
4700;SDS011;8724;51.272;6.554;2023-12-04T00:42:27;10.53;;;9.43;;
4700;SDS011;8724;51.272;6.554;2023-12-04T00:44:55;10.93;;;9.87;;
4700;SDS011;8724;51.272;6.554;2023-12-04T00:47:23;10.50;;;9.50;;
4700;SDS011;8724;51.272;6.554;2023-12-04T00:49:51;10.50;;;9.43;;
4700;SDS011;8724;51.272;6.554;2023-12-04T00:52:21;10.67;;;9.57;;
4700;SDS011;8724;51.272;6.554;2023-12-04T00:54:49;11.00;;;9.90;;
4700;SDS011;8724;51.272;6.554;2023-12-04T00:57:18;10.43;;;9.43;;
4700;SDS011;8724;51.272;6.554;2023-12-04T00:59:52;10.27;;;9.17;;
4700;SDS011;8724;51.272;6.554;2023-12-04T01:02:20;10.70;;;9.60;;
4700;SDS011;8724;51.272;6.554;2023-12-04T01:04:48;10.43;;;9.43;;
4700;SDS011;8724;51.272;6.554;2023-12-04T01:07:17;10.30;;;9.30;;
4700;SDS011;8724;51.272;6.554;2023-12-04T01:09:45;8.40;;;7.70;;
4700;SDS011;8724;51.272;6.554;2023-12-04T01:12:13;10.93;;;9.27;;
4700;SDS011;8724;51.272;6.554;2023-12-04T01:14:57;8.70;;;7.90;;
4700;SDS011;8724;51.272;6.554;2023-12-04T01:17:25;10.20;;;9.10;;
4700;SDS011;8724;51.272;6.554;2023-12-04T01:19:53;9.30;;;8.40;;
4700;SDS011;8724;51.272;6.554;2023-12-04T01:22:21;10.43;;;9.30;;
4700;SDS011;8724;51.272;6.554;2023-12-04T01:24:50;9.23;;;8.23;;
4700;SDS011;8724;51.272;6.554;2023-12-04T01:27:19;9.23;;;8.33;;
4700;SDS011;8724;51.272;6.554;2023-12-04T01:29:47;9.07;;;8.13;;
4700;SDS011;8724;51.272;6.554;2023-12-04T01:32:16;9.53;;;8.53;;
4700;SDS011;8724;51.272;6.554;2023-12-04T01:34:44;9.00;;;8.10;;
4700;SDS011;8724;51.272;6.554;2023-12-04T01:37:12;10.57;;;9.60;;
4700;SDS011;8724;51.272;6.554;2023-12-04T01:39:41;9.83;;;8.83;;
4700;SDS011;8724;51.272;6.554;2023-12-04T01:42:09;9.27;;;8.27;;
4700;SDS011;8724;51.272;6.554;2023-12-04T01:44:38;10.93;;;9.30;;
4700;SDS011;8724;51.272;6.554;2023-12-04T01:47:06;10.77;;;9.43;;
4700;SDS011;8724;51.272;6.554;2023-12-04T01:49:36;10.10;;;9.03;;
4700;SDS011;8724;51.272;6.554;2023-12-04T01:52:04;10.43;;;9.43;;
4700;SDS011;8724;51.272;6.554;2023-12-04T01:54:33;10.47;;;9.40;;
4700;SDS011;8724;51.272;6.554;2023-12-04T01:57:08;10.33;;;8.93;;
4700;SDS011;8724;51.272;6.554;2023-12-04T01:59:37;9.17;;;8.27;;
4700;SDS011;8724;51.272;6.554;2023-12-04T02:02:06;9.40;;;8.50;;
4700;SDS011;8724;51.272;6.554;2023-12-04T02:04:36;8.97;;;8.07;;
4700;SDS011;8724;51.272;6.554;2023-12-04T02:07:04;8.83;;;8.03;;
4700;SDS011;8724;51.272;6.554;2023-12-04T02:09:32;9.77;;;8.87;;
4700;SDS011;8724;51.272;6.554;2023-12-04T02:12:00;9.03;;;8.23;;
4700;SDS011;8724;51.272;6.554;2023-12-04T02:14:29;9.13;;;8.23;;
4700;SDS011;8724;51.272;6.554;2023-12-04T02:16:57;9.80;;;8.80;;
4700;SDS011;8724;51.272;6.554;2023-12-04T02:19:27;8.27;;;7.57;;
4700;SDS011;8724;51.272;6.554;2023-12-04T02:21:56;10.47;;;9.47;;
4700;SDS011;8724;51.272;6.554;2023-12-04T02:24:26;9.23;;;8.33;;
4700;SDS011;8724;51.272;6.554;2023-12-04T02:26:54;9.17;;;8.37;;
4700;SDS011;8724;51.272;6.554;2023-12-04T02:29:31;10.03;;;8.33;;
4700;SDS011;8724;51.272;6.554;2023-12-04T02:32:05;9.80;;;8.90;;
4700;SDS011;8724;51.272;6.554;2023-12-04T02:34:35;8.70;;;7.90;;
4700;SDS011;8724;51.272;6.554;2023-12-04T02:37:04;8.80;;;8.00;;
4700;SDS011;8724;51.272;6.554;2023-12-04T02:39:35;8.50;;;7.70;;
4700;SDS011;8724;51.272;6.554;2023-12-04T02:42:04;9.83;;;8.83;;
4700;SDS011;8724;51.272;6.554;2023-12-04T02:44:34;9.10;;;8.20;;
4700;SDS011;8724;51.272;6.554;2023-12-04T02:47:02;8.90;;;8.03;;
4700;SDS011;8724;51.272;6.554;2023-12-04T02:49:30;8.20;;;7.50;;
4700;SDS011;8724;51.272;6.554;2023-12-04T02:51:58;8.70;;;7.80;;
4700;SDS011;8724;51.272;6.554;2023-12-04T02:54:26;9.40;;;8.40;;
4700;SDS011;8724;51.272;6.554;2023-12-04T02:56:56;9.03;;;8.13;;
4700;SDS011;8724;51.272;6.554;2023-12-04T02:59:24;9.47;;;8.57;;
4700;SDS011;8724;51.272;6.554;2023-12-04T03:01:53;9.03;;;8.17;;
4700;SDS011;8724;51.272;6.554;2023-12-04T03:04:21;8.80;;;8.00;;
4700;SDS011;8724;51.272;6.554;2023-12-04T03:06:49;8.70;;;7.90;;
4700;SDS011;8724;51.272;6.554;2023-12-04T03:09:17;8.40;;;7.60;;
4700;SDS011;8724;51.272;6.554;2023-12-04T03:11:45;8.50;;;7.77;;
4700;SDS011;8724;51.272;6.554;2023-12-04T03:14:15;8.40;;;7.60;;
4700;SDS011;8724;51.272;6.554;2023-12-04T03:16:43;8.77;;;7.87;;
4700;SDS011;8724;51.272;6.554;2023-12-04T03:19:11;8.50;;;7.70;;
4700;SDS011;8724;51.272;6.554;2023-12-04T03:21:39;8.07;;;7.27;;
4700;SDS011;8724;51.272;6.554;2023-12-04T03:24:07;8.27;;;7.47;;
4700;SDS011;8724;51.272;6.554;2023-12-04T03:26:36;9.53;;;8.60;;
4700;SDS011;8724;51.272;6.554;2023-12-04T03:29:04;8.57;;;7.77;;
4700;SDS011;8724;51.272;6.554;2023-12-04T03:31:33;8.60;;;7.80;;
4700;SDS011;8724;51.272;6.554;2023-12-04T03:34:02;7.70;;;6.97;;
4700;SDS011;8724;51.272;6.554;2023-12-04T03:36:31;8.70;;;7.80;;
4700;SDS011;8724;51.272;6.554;2023-12-04T03:38:59;7.57;;;6.87;;
4700;SDS011;8724;51.272;6.554;2023-12-04T03:41:29;7.20;;;6.50;;
4700;SDS011;8724;51.272;6.554;2023-12-04T03:43:57;8.00;;;7.20;;
4700;SDS011;8724;51.272;6.554;2023-12-04T03:46:25;7.87;;;7.17;;
4700;SDS011;8724;51.272;6.554;2023-12-04T03:48:55;7.90;;;7.20;;
4700;SDS011;8724;51.272;6.554;2023-12-04T03:51:23;7.17;;;6.57;;
4700;SDS011;8724;51.272;6.554;2023-12-04T03:53:51;7.87;;;7.10;;
4700;SDS011;8724;51.272;6.554;2023-12-04T03:56:19;7.33;;;6.70;;
4700;SDS011;8724;51.272;6.554;2023-12-04T03:58:47;8.37;;;7.50;;
4700;SDS011;8724;51.272;6.554;2023-12-04T04:01:15;6.87;;;6.23;;
4700;SDS011;8724;51.272;6.554;2023-12-04T04:03:44;8.17;;;7.37;;
4700;SDS011;8724;51.272;6.554;2023-12-04T04:06:13;7.97;;;7.23;;
4700;SDS011;8724;51.272;6.554;2023-12-04T04:08:41;8.27;;;7.57;;
4700;SDS011;8724;51.272;6.554;2023-12-04T04:11:10;7.67;;;6.93;;
4700;SDS011;8724;51.272;6.554;2023-12-04T04:13:38;7.27;;;6.57;;
4700;SDS011;8724;51.272;6.554;2023-12-04T04:16:07;6.70;;;6.10;;
4700;SDS011;8724;51.272;6.554;2023-12-04T04:18:38;7.13;;;6.47;;
4700;SDS011;8724;51.272;6.554;2023-12-04T04:21:07;7.80;;;7.10;;
4700;SDS011;8724;51.272;6.554;2023-12-04T04:23:36;8.33;;;6.87;;
4700;SDS011;8724;51.272;6.554;2023-12-04T04:26:05;6.50;;;5.90;;
4700;SDS011;8724;51.272;6.554;2023-12-04T04:28:33;7.20;;;6.57;;
4700;SDS011;8724;51.272;6.554;2023-12-04T04:31:01;7.63;;;6.83;;
4700;SDS011;8724;51.272;6.554;2023-12-04T04:33:29;7.20;;;6.50;;
4700;SDS011;8724;51.272;6.554;2023-12-04T04:35:57;7.77;;;6.97;;
4700;SDS011;8724;51.272;6.554;2023-12-04T04:38:26;8.17;;;7.43;;
4700;SDS011;8724;51.272;6.554;2023-12-04T04:40:56;7.60;;;7.00;;
4700;SDS011;8724;51.272;6.554;2023-12-04T04:43:25;7.53;;;6.83;;
4700;SDS011;8724;51.272;6.554;2023-12-04T04:45:53;9.00;;;8.10;;
4700;SDS011;8724;51.272;6.554;2023-12-04T04:48:21;8.23;;;7.43;;
4700;SDS011;8724;51.272;6.554;2023-12-04T04:50:49;7.40;;;6.73;;
4700;SDS011;8724;51.272;6.554;2023-12-04T04:53:17;7.77;;;7.07;;
4700;SDS011;8724;51.272;6.554;2023-12-04T04:58:40;8.40;;;7.10;;
4700;SDS011;8724;51.272;6.554;2023-12-04T05:01:08;7.73;;;7.00;;
4700;SDS011;8724;51.272;6.554;2023-12-04T05:03:37;8.63;;;7.90;;
4700;SDS011;8724;51.272;6.554;2023-12-04T05:06:05;8.20;;;7.23;;
4700;SDS011;8724;51.272;6.554;2023-12-04T05:08:34;8.83;;;7.33;;
4700;SDS011;8724;51.272;6.554;2023-12-04T05:11:02;8.00;;;7.20;;
4700;SDS011;8724;51.272;6.554;2023-12-04T05:13:32;10.47;;;8.50;;
4700;SDS011;8724;51.272;6.554;2023-12-04T05:16:00;8.90;;;8.00;;
4700;SDS011;8724;51.272;6.554;2023-12-04T05:18:28;7.37;;;6.67;;
4700;SDS011;8724;51.272;6.554;2023-12-04T05:20:57;10.40;;;8.80;;
4700;SDS011;8724;51.272;6.554;2023-12-04T05:23:25;8.13;;;7.40;;
4700;SDS011;8724;51.272;6.554;2023-12-04T05:25:53;7.20;;;6.50;;
4700;SDS011;8724;51.272;6.554;2023-12-04T05:28:21;8.23;;;7.43;;
4700;SDS011;8724;51.272;6.554;2023-12-04T05:30:50;8.30;;;7.40;;
4700;SDS011;8724;51.272;6.554;2023-12-04T05:33:18;8.10;;;7.40;;
4700;SDS011;8724;51.272;6.554;2023-12-04T05:35:47;7.83;;;7.13;;
4700;SDS011;8724;51.272;6.554;2023-12-04T05:38:17;8.33;;;6.97;;
4700;SDS011;8724;51.272;6.554;2023-12-04T05:40:46;9.10;;;8.30;;
4700;SDS011;8724;51.272;6.554;2023-12-04T05:43:15;8.23;;;7.53;;
4700;SDS011;8724;51.272;6.554;2023-12-04T05:45:43;8.83;;;7.93;;
4700;SDS011;8724;51.272;6.554;2023-12-04T05:48:12;9.03;;;8.23;;
4700;SDS011;8724;51.272;6.554;2023-12-04T05:50:41;7.90;;;7.10;;
4700;SDS011;8724;51.272;6.554;2023-12-04T05:53:09;7.47;;;6.83;;
4700;SDS011;8724;51.272;6.554;2023-12-04T05:55:37;8.30;;;7.50;;
4700;SDS011;8724;51.272;6.554;2023-12-04T05:58:05;8.67;;;7.87;;
4700;SDS011;8724;51.272;6.554;2023-12-04T06:00:33;8.20;;;7.40;;
4700;SDS011;8724;51.272;6.554;2023-12-04T06:03:01;8.73;;;7.87;;
4700;SDS011;8724;51.272;6.554;2023-12-04T06:05:31;8.37;;;7.60;;
4700;SDS011;8724;51.272;6.554;2023-12-04T06:07:59;8.20;;;7.40;;
4700;SDS011;8724;51.272;6.554;2023-12-04T06:10:27;8.33;;;7.43;;
4700;SDS011;8724;51.272;6.554;2023-12-04T06:12:55;8.30;;;7.50;;
4700;SDS011;8724;51.272;6.554;2023-12-04T06:15:23;9.13;;;8.23;;
4700;SDS011;8724;51.272;6.554;2023-12-04T06:17:51;8.40;;;7.63;;
4700;SDS011;8724;51.272;6.554;2023-12-04T06:20:19;8.13;;;7.43;;
4700;SDS011;8724;51.272;6.554;2023-12-04T06:22:49;8.40;;;7.60;;
4700;SDS011;8724;51.272;6.554;2023-12-04T06:25:18;10.30;;;9.37;;
4700;SDS011;8724;51.272;6.554;2023-12-04T06:27:46;10.43;;;9.30;;
4700;SDS011;8724;51.272;6.554;2023-12-04T06:30:15;13.87;;;8.77;;
4700;SDS011;8724;51.272;6.554;2023-12-04T06:32:45;9.30;;;8.30;;
4700;SDS011;8724;51.272;6.554;2023-12-04T06:35:14;8.70;;;7.80;;
4700;SDS011;8724;51.272;6.554;2023-12-04T06:37:47;9.40;;;8.50;;
4700;SDS011;8724;51.272;6.554;2023-12-04T06:40:21;9.50;;;8.50;;
4700;SDS011;8724;51.272;6.554;2023-12-04T06:42:50;9.30;;;8.37;;
4700;SDS011;8724;51.272;6.554;2023-12-04T06:45:19;9.93;;;8.97;;
4700;SDS011;8724;51.272;6.554;2023-12-04T06:47:48;8.90;;;8.00;;
4700;SDS011;8724;51.272;6.554;2023-12-04T06:50:18;10.37;;;9.37;;
4700;SDS011;8724;51.272;6.554;2023-12-04T06:52:46;10.43;;;9.43;;
4700;SDS011;8724;51.272;6.554;2023-12-04T06:55:15;9.70;;;8.80;;
4700;SDS011;8724;51.272;6.554;2023-12-04T06:57:43;10.37;;;9.37;;
4700;SDS011;8724;51.272;6.554;2023-12-04T07:00:12;9.33;;;8.43;;
4700;SDS011;8724;51.272;6.554;2023-12-04T07:02:48;9.97;;;8.93;;
4700;SDS011;8724;51.272;6.554;2023-12-04T07:05:17;11.10;;;10.00;;
4700;SDS011;8724;51.272;6.554;2023-12-04T07:07:45;10.93;;;9.80;;
4700;SDS011;8724;51.272;6.554;2023-12-04T07:10:13;10.67;;;9.57;;
4700;SDS011;8724;51.272;6.554;2023-12-04T07:12:43;11.53;;;10.33;;
4700;SDS011;8724;51.272;6.554;2023-12-04T07:15:12;10.97;;;9.97;;
4700;SDS011;8724;51.272;6.554;2023-12-04T07:17:40;10.40;;;9.30;;
4700;SDS011;8724;51.272;6.554;2023-12-04T07:20:08;11.00;;;9.90;;
4700;SDS011;8724;51.272;6.554;2023-12-04T07:22:38;9.63;;;8.73;;
4700;SDS011;8724;51.272;6.554;2023-12-04T07:25:07;10.20;;;9.17;;
4700;SDS011;8724;51.272;6.554;2023-12-04T07:27:37;9.90;;;9.00;;
4700;SDS011;8724;51.272;6.554;2023-12-04T07:30:06;12.20;;;10.70;;
4700;SDS011;8724;51.272;6.554;2023-12-04T07:32:35;10.00;;;8.97;;
4700;SDS011;8724;51.272;6.554;2023-12-04T07:35:04;10.10;;;9.03;;
4700;SDS011;8724;51.272;6.554;2023-12-04T07:37:33;11.37;;;10.00;;
4700;SDS011;8724;51.272;6.554;2023-12-04T07:40:02;9.40;;;8.53;;
4700;SDS011;8724;51.272;6.554;2023-12-04T07:42:32;11.33;;;10.10;;
4700;SDS011;8724;51.272;6.554;2023-12-04T07:45:02;9.80;;;8.90;;
4700;SDS011;8724;51.272;6.554;2023-12-04T07:47:31;10.30;;;9.20;;
4700;SDS011;8724;51.272;6.554;2023-12-04T07:49:59;10.87;;;9.87;;
4700;SDS011;8724;51.272;6.554;2023-12-04T07:52:27;8.90;;;8.10;;
4700;SDS011;8724;51.272;6.554;2023-12-04T07:54:56;12.63;;;11.10;;
4700;SDS011;8724;51.272;6.554;2023-12-04T07:57:24;9.37;;;8.37;;
4700;SDS011;8724;51.272;6.554;2023-12-04T07:59:52;9.80;;;8.90;;
4700;SDS011;8724;51.272;6.554;2023-12-04T08:02:22;11.73;;;10.63;;
4700;SDS011;8724;51.272;6.554;2023-12-04T08:04:50;9.67;;;8.80;;
4700;SDS011;8724;51.272;6.554;2023-12-04T08:07:19;10.30;;;9.40;;
4700;SDS011;8724;51.272;6.554;2023-12-04T08:09:48;10.40;;;9.37;;
4700;SDS011;8724;51.272;6.554;2023-12-04T08:12:16;8.80;;;8.00;;
4700;SDS011;8724;51.272;6.554;2023-12-04T08:14:44;10.17;;;9.20;;
4700;SDS011;8724;51.272;6.554;2023-12-04T08:17:13;9.20;;;8.40;;
4700;SDS011;8724;51.272;6.554;2023-12-04T08:19:42;8.70;;;7.90;;
4700;SDS011;8724;51.272;6.554;2023-12-04T08:22:14;9.30;;;8.50;;
4700;SDS011;8724;51.272;6.554;2023-12-04T08:24:42;9.37;;;8.57;;
4700;SDS011;8724;51.272;6.554;2023-12-04T08:27:10;10.37;;;9.37;;
4700;SDS011;8724;51.272;6.554;2023-12-04T08:29:39;9.37;;;8.43;;
4700;SDS011;8724;51.272;6.554;2023-12-04T08:32:07;9.47;;;8.57;;
4700;SDS011;8724;51.272;6.554;2023-12-04T08:34:35;9.87;;;8.87;;
4700;SDS011;8724;51.272;6.554;2023-12-04T08:37:05;9.20;;;8.30;;
4700;SDS011;8724;51.272;6.554;2023-12-04T08:39:34;9.00;;;8.10;;
4700;SDS011;8724;51.272;6.554;2023-12-04T08:42:02;7.87;;;7.07;;
4700;SDS011;8724;51.272;6.554;2023-12-04T08:44:38;7.43;;;6.83;;
4700;SDS011;8724;51.272;6.554;2023-12-04T08:47:06;8.07;;;7.27;;
4700;SDS011;8724;51.272;6.554;2023-12-04T08:49:34;8.60;;;7.80;;
4700;SDS011;8724;51.272;6.554;2023-12-04T08:52:16;8.53;;;7.73;;
4700;SDS011;8724;51.272;6.554;2023-12-04T08:54:44;7.00;;;6.40;;
4700;SDS011;8724;51.272;6.554;2023-12-04T08:57:12;8.77;;;7.90;;
4700;SDS011;8724;51.272;6.554;2023-12-04T08:59:41;8.33;;;7.43;;
4700;SDS011;8724;51.272;6.554;2023-12-04T09:02:09;8.27;;;7.47;;
4700;SDS011;8724;51.272;6.554;2023-12-04T09:04:40;9.63;;;8.73;;
4700;SDS011;8724;51.272;6.554;2023-12-04T09:07:09;8.63;;;7.90;;
4700;SDS011;8724;51.272;6.554;2023-12-04T09:09:59;8.17;;;7.27;;
4700;SDS011;8724;51.272;6.554;2023-12-04T09:12:36;8.30;;;7.50;;
4700;SDS011;8724;51.272;6.554;2023-12-04T09:15:04;8.50;;;7.70;;
4700;SDS011;8724;51.272;6.554;2023-12-04T09:17:35;8.30;;;7.50;;
4700;SDS011;8724;51.272;6.554;2023-12-04T09:20:05;8.50;;;7.70;;
4700;SDS011;8724;51.272;6.554;2023-12-04T09:22:35;8.30;;;7.50;;
4700;SDS011;8724;51.272;6.554;2023-12-04T09:25:19;9.57;;;8.50;;
4700;SDS011;8724;51.272;6.554;2023-12-04T09:27:48;8.30;;;7.40;;
4700;SDS011;8724;51.272;6.554;2023-12-04T09:30:16;8.40;;;7.60;;
4700;SDS011;8724;51.272;6.554;2023-12-04T09:32:45;8.27;;;7.30;;
4700;SDS011;8724;51.272;6.554;2023-12-04T09:35:13;8.60;;;7.63;;
4700;SDS011;8724;51.272;6.554;2023-12-04T09:37:42;8.50;;;7.67;;
4700;SDS011;8724;51.272;6.554;2023-12-04T09:40:12;8.73;;;7.93;;
4700;SDS011;8724;51.272;6.554;2023-12-04T09:42:42;9.10;;;8.20;;
4700;SDS011;8724;51.272;6.554;2023-12-04T09:45:10;8.80;;;7.90;;
4700;SDS011;8724;51.272;6.554;2023-12-04T09:47:39;8.43;;;7.53;;
4700;SDS011;8724;51.272;6.554;2023-12-04T09:50:09;7.50;;;6.80;;
4700;SDS011;8724;51.272;6.554;2023-12-04T09:52:38;7.77;;;7.07;;
4700;SDS011;8724;51.272;6.554;2023-12-04T09:55:06;8.57;;;7.73;;
4700;SDS011;8724;51.272;6.554;2023-12-04T09:57:35;8.43;;;7.27;;
4700;SDS011;8724;51.272;6.554;2023-12-04T10:00:05;8.10;;;7.20;;
4700;SDS011;8724;51.272;6.554;2023-12-04T10:02:38;8.00;;;7.27;;
4700;SDS011;8724;51.272;6.554;2023-12-04T10:05:07;7.60;;;6.90;;
4700;SDS011;8724;51.272;6.554;2023-12-04T10:07:36;7.60;;;6.67;;
4700;SDS011;8724;51.272;6.554;2023-12-04T10:10:06;7.87;;;7.07;;
4700;SDS011;8724;51.272;6.554;2023-12-04T10:12:36;8.47;;;7.67;;
4700;SDS011;8724;51.272;6.554;2023-12-04T10:15:07;7.23;;;6.53;;
4700;SDS011;8724;51.272;6.554;2023-12-04T10:17:37;7.00;;;6.40;;
4700;SDS011;8724;51.272;6.554;2023-12-04T10:20:07;8.50;;;7.70;;
4700;SDS011;8724;51.272;6.554;2023-12-04T10:22:39;7.33;;;6.70;;
4700;SDS011;8724;51.272;6.554;2023-12-04T10:25:19;7.50;;;6.80;;
4700;SDS011;8724;51.272;6.554;2023-12-04T10:27:47;6.60;;;6.00;;
4700;SDS011;8724;51.272;6.554;2023-12-04T10:30:23;7.30;;;6.57;;
4700;SDS011;8724;51.272;6.554;2023-12-04T10:35:52;6.80;;;6.20;;
4700;SDS011;8724;51.272;6.554;2023-12-04T10:38:21;6.80;;;6.20;;
4700;SDS011;8724;51.272;6.554;2023-12-04T10:40:51;6.87;;;6.27;;
4700;SDS011;8724;51.272;6.554;2023-12-04T10:43:20;8.10;;;7.30;;
4700;SDS011;8724;51.272;6.554;2023-12-04T10:45:51;6.70;;;6.10;;
4700;SDS011;8724;51.272;6.554;2023-12-04T10:48:21;7.40;;;6.70;;
4700;SDS011;8724;51.272;6.554;2023-12-04T10:50:49;7.53;;;6.80;;
4700;SDS011;8724;51.272;6.554;2023-12-04T10:53:19;7.70;;;7.00;;
4700;SDS011;8724;51.272;6.554;2023-12-04T10:55:47;7.30;;;6.60;;
4700;SDS011;8724;51.272;6.554;2023-12-04T10:58:17;7.60;;;6.80;;
4700;SDS011;8724;51.272;6.554;2023-12-04T11:00:47;7.70;;;6.93;;
4700;SDS011;8724;51.272;6.554;2023-12-04T11:03:18;8.00;;;7.30;;
4700;SDS011;8724;51.272;6.554;2023-12-04T11:05:51;8.30;;;7.50;;
4700;SDS011;8724;51.272;6.554;2023-12-04T11:08:28;8.10;;;7.30;;
4700;SDS011;8724;51.272;6.554;2023-12-04T11:10:58;6.43;;;5.83;;
4700;SDS011;8724;51.272;6.554;2023-12-04T11:13:30;7.30;;;6.60;;
4700;SDS011;8724;51.272;6.554;2023-12-04T11:16:01;8.47;;;7.57;;
4700;SDS011;8724;51.272;6.554;2023-12-04T11:18:35;8.10;;;7.30;;
4700;SDS011;8724;51.272;6.554;2023-12-04T11:21:06;8.40;;;7.50;;
4700;SDS011;8724;51.272;6.554;2023-12-04T11:23:36;8.20;;;7.50;;
4700;SDS011;8724;51.272;6.554;2023-12-04T11:26:07;9.27;;;7.10;;
4700;SDS011;8724;51.272;6.554;2023-12-04T11:28:36;7.60;;;6.90;;
4700;SDS011;8724;51.272;6.554;2023-12-04T11:31:06;8.80;;;7.20;;
4700;SDS011;8724;51.272;6.554;2023-12-04T11:33:36;7.40;;;6.70;;
4700;SDS011;8724;51.272;6.554;2023-12-04T11:36:06;11.07;;;7.00;;
4700;SDS011;8724;51.272;6.554;2023-12-04T11:38:43;7.53;;;6.40;;
4700;SDS011;8724;51.272;6.554;2023-12-04T11:41:16;8.30;;;7.50;;
4700;SDS011;8724;51.272;6.554;2023-12-04T11:43:51;8.00;;;7.20;;
4700;SDS011;8724;51.272;6.554;2023-12-04T11:46:22;7.90;;;7.20;;
4700;SDS011;8724;51.272;6.554;2023-12-04T11:48:55;7.53;;;6.83;;
4700;SDS011;8724;51.272;6.554;2023-12-04T11:54:18;7.77;;;7.07;;
4700;SDS011;8724;51.272;6.554;2023-12-04T11:56:56;7.90;;;7.10;;
4700;SDS011;8724;51.272;6.554;2023-12-04T11:59:27;7.43;;;6.77;;
4700;SDS011;8724;51.272;6.554;2023-12-04T12:01:55;8.03;;;7.20;;
4700;SDS011;8724;51.272;6.554;2023-12-04T12:04:27;7.13;;;6.47;;
4700;SDS011;8724;51.272;6.554;2023-12-04T12:06:58;8.17;;;7.47;;
4700;SDS011;8724;51.272;6.554;2023-12-04T12:09:29;8.73;;;7.20;;
4700;SDS011;8724;51.272;6.554;2023-12-04T12:11:58;7.70;;;7.00;;
4700;SDS011;8724;51.272;6.554;2023-12-04T12:14:28;8.73;;;7.53;;
4700;SDS011;8724;51.272;6.554;2023-12-04T12:16:58;9.00;;;8.20;;
4700;SDS011;8724;51.272;6.554;2023-12-04T12:19:29;8.33;;;7.53;;
4700;SDS011;8724;51.272;6.554;2023-12-04T12:21:57;8.77;;;7.87;;
4700;SDS011;8724;51.272;6.554;2023-12-04T12:24:27;7.57;;;6.87;;
4700;SDS011;8724;51.272;6.554;2023-12-04T12:26:56;8.00;;;7.30;;
4700;SDS011;8724;51.272;6.554;2023-12-04T12:29:24;8.20;;;7.27;;
4700;SDS011;8724;51.272;6.554;2023-12-04T12:31:52;6.93;;;6.33;;
4700;SDS011;8724;51.272;6.554;2023-12-04T12:34:20;8.37;;;7.50;;
4700;SDS011;8724;51.272;6.554;2023-12-04T12:39:33;9.13;;;8.30;;
4700;SDS011;8724;51.272;6.554;2023-12-04T12:42:02;7.90;;;7.20;;
4700;SDS011;8724;51.272;6.554;2023-12-04T12:44:36;9.00;;;7.93;;
4700;SDS011;8724;51.272;6.554;2023-12-04T12:47:06;9.47;;;8.47;;
4700;SDS011;8724;51.272;6.554;2023-12-04T12:49:35;9.33;;;8.10;;
4700;SDS011;8724;51.272;6.554;2023-12-04T12:52:09;8.93;;;8.10;;
4700;SDS011;8724;51.272;6.554;2023-12-04T12:54:38;8.33;;;7.53;;
4700;SDS011;8724;51.272;6.554;2023-12-04T12:57:07;10.13;;;7.90;;
4700;SDS011;8724;51.272;6.554;2023-12-04T12:59:37;8.60;;;7.70;;
4700;SDS011;8724;51.272;6.554;2023-12-04T13:02:06;7.47;;;6.77;;
4700;SDS011;8724;51.272;6.554;2023-12-04T13:04:36;8.37;;;7.50;;
4700;SDS011;8724;51.272;6.554;2023-12-04T13:07:05;8.77;;;7.57;;
4700;SDS011;8724;51.272;6.554;2023-12-04T13:09:35;7.63;;;6.80;;
4700;SDS011;8724;51.272;6.554;2023-12-04T13:12:03;8.10;;;7.30;;
4700;SDS011;8724;51.272;6.554;2023-12-04T13:14:33;8.47;;;7.67;;
4700;SDS011;8724;51.272;6.554;2023-12-04T13:17:02;8.47;;;7.67;;
4700;SDS011;8724;51.272;6.554;2023-12-04T13:19:31;7.20;;;6.50;;
4700;SDS011;8724;51.272;6.554;2023-12-04T13:22:01;7.93;;;7.13;;
4700;SDS011;8724;51.272;6.554;2023-12-04T13:24:30;7.13;;;6.63;;
4700;SDS011;8724;51.272;6.554;2023-12-04T13:27:00;7.30;;;6.60;;
4700;SDS011;8724;51.272;6.554;2023-12-04T13:29:28;8.93;;;7.97;;
4700;SDS011;8724;51.272;6.554;2023-12-04T13:31:57;8.43;;;7.63;;
4700;SDS011;8724;51.272;6.554;2023-12-04T13:34:25;7.87;;;7.17;;
4700;SDS011;8724;51.272;6.554;2023-12-04T13:36:54;9.40;;;7.50;;
4700;SDS011;8724;51.272;6.554;2023-12-04T13:39:24;8.20;;;7.00;;
4700;SDS011;8724;51.272;6.554;2023-12-04T13:42:06;7.63;;;6.93;;
4700;SDS011;8724;51.272;6.554;2023-12-04T13:44:52;9.17;;;8.00;;
4700;SDS011;8724;51.272;6.554;2023-12-04T13:47:20;8.83;;;8.13;;
4700;SDS011;8724;51.272;6.554;2023-12-04T13:49:48;10.13;;;8.10;;
4700;SDS011;8724;51.272;6.554;2023-12-04T13:52:17;8.50;;;7.70;;
4700;SDS011;8724;51.272;6.554;2023-12-04T13:54:49;7.50;;;6.80;;
4700;SDS011;8724;51.272;6.554;2023-12-04T13:57:20;7.50;;;6.80;;
4700;SDS011;8724;51.272;6.554;2023-12-04T13:59:54;7.60;;;6.90;;
4700;SDS011;8724;51.272;6.554;2023-12-04T14:02:23;7.53;;;6.83;;
4700;SDS011;8724;51.272;6.554;2023-12-04T14:04:52;8.83;;;7.43;;
4700;SDS011;8724;51.272;6.554;2023-12-04T14:07:20;7.43;;;6.73;;
4700;SDS011;8724;51.272;6.554;2023-12-04T14:09:50;7.93;;;7.23;;
4700;SDS011;8724;51.272;6.554;2023-12-04T14:12:18;7.23;;;6.60;;
4700;SDS011;8724;51.272;6.554;2023-12-04T14:14:47;7.80;;;7.10;;
4700;SDS011;8724;51.272;6.554;2023-12-04T14:17:16;7.90;;;7.10;;
4700;SDS011;8724;51.272;6.554;2023-12-04T14:19:44;7.20;;;6.50;;
4700;SDS011;8724;51.272;6.554;2023-12-04T14:22:13;7.83;;;6.60;;
4700;SDS011;8724;51.272;6.554;2023-12-04T14:24:41;6.70;;;6.20;;
4700;SDS011;8724;51.272;6.554;2023-12-04T14:27:10;6.87;;;6.27;;
4700;SDS011;8724;51.272;6.554;2023-12-04T14:29:38;6.40;;;5.80;;
4700;SDS011;8724;51.272;6.554;2023-12-04T14:32:08;7.40;;;6.70;;
4700;SDS011;8724;51.272;6.554;2023-12-04T14:34:36;6.40;;;5.80;;
4700;SDS011;8724;51.272;6.554;2023-12-04T14:37:05;7.50;;;6.80;;
4700;SDS011;8724;51.272;6.554;2023-12-04T14:39:35;6.73;;;6.20;;
4700;SDS011;8724;51.272;6.554;2023-12-04T14:42:03;5.97;;;5.40;;
4700;SDS011;8724;51.272;6.554;2023-12-04T14:44:32;11.23;;;6.90;;
4700;SDS011;8724;51.272;6.554;2023-12-04T14:47:00;9.00;;;6.23;;
4700;SDS011;8724;51.272;6.554;2023-12-04T14:49:32;7.07;;;6.37;;
4700;SDS011;8724;51.272;6.554;2023-12-04T14:52:01;5.60;;;5.10;;
4700;SDS011;8724;51.272;6.554;2023-12-04T14:54:31;5.90;;;5.40;;
4700;SDS011;8724;51.272;6.554;2023-12-04T14:57:18;6.63;;;6.03;;
4700;SDS011;8724;51.272;6.554;2023-12-04T15:00:19;5.83;;;5.33;;
4700;SDS011;8724;51.272;6.554;2023-12-04T15:03:16;5.53;;;5.03;;
4700;SDS011;8724;51.272;6.554;2023-12-04T15:06:03;5.40;;;4.90;;
4700;SDS011;8724;51.272;6.554;2023-12-04T15:09:02;6.70;;;5.53;;
4700;SDS011;8724;51.272;6.554;2023-12-04T15:12:18;6.03;;;5.53;;
4700;SDS011;8724;51.272;6.554;2023-12-04T15:14:54;6.20;;;5.70;;
4700;SDS011;8724;51.272;6.554;2023-12-04T15:17:27;6.27;;;5.67;;
4700;SDS011;8724;51.272;6.554;2023-12-04T15:20:00;5.60;;;5.17;;
4700;SDS011;8724;51.272;6.554;2023-12-04T15:22:59;5.10;;;4.63;;
4700;SDS011;8724;51.272;6.554;2023-12-04T15:25:28;4.83;;;4.43;;
4700;SDS011;8724;51.272;6.554;2023-12-04T15:27:55;5.40;;;5.00;;
4700;SDS011;8724;51.272;6.554;2023-12-04T15:30:23;5.70;;;5.20;;
4700;SDS011;8724;51.272;6.554;2023-12-04T15:32:50;5.70;;;5.20;;
4700;SDS011;8724;51.272;6.554;2023-12-04T15:35:19;6.07;;;5.47;;
4700;SDS011;8724;51.272;6.554;2023-12-04T15:37:46;6.70;;;6.10;;
4700;SDS011;8724;51.272;6.554;2023-12-04T15:40:16;6.30;;;5.80;;